sensor_id;sensor_type;location;lat;lon;timestamp;temperature;humidity
1417;DHT22;703;51.162;13.574;2023-10-08T00:00:22;18.70;99.90
1417;DHT22;703;51.162;13.574;2023-10-08T00:03:14;18.30;99.90
1417;DHT22;703;51.162;13.574;2023-10-08T00:05:40;18.70;99.90
1417;DHT22;703;51.162;13.574;2023-10-08T00:08:06;18.50;99.90
1417;DHT22;703;51.162;13.574;2023-10-08T00:10:35;18.60;99.90
1417;DHT22;703;51.162;13.574;2023-10-08T00:13:03;18.60;99.90
1417;DHT22;703;51.162;13.574;2023-10-08T00:15:28;18.60;99.90
1417;DHT22;703;51.162;13.574;2023-10-08T00:17:53;18.60;99.90
1417;DHT22;703;51.162;13.574;2023-10-08T00:20:20;18.50;99.90
1417;DHT22;703;51.162;13.574;2023-10-08T00:22:50;18.50;99.90
1417;DHT22;703;51.162;13.574;2023-10-08T00:25:19;18.40;99.90
1417;DHT22;703;51.162;13.574;2023-10-08T00:27:45;18.20;99.90
1417;DHT22;703;51.162;13.574;2023-10-08T00:30:12;18.30;99.90
1417;DHT22;703;51.162;13.574;2023-10-08T00:32:46;18.30;99.90
1417;DHT22;703;51.162;13.574;2023-10-08T00:35:11;18.10;99.90
1417;DHT22;703;51.162;13.574;2023-10-08T00:37:40;18.00;99.90
1417;DHT22;703;51.162;13.574;2023-10-08T00:40:06;17.70;99.90
1417;DHT22;703;51.162;13.574;2023-10-08T00:42:39;17.70;99.90
1417;DHT22;703;51.162;13.574;2023-10-08T00:45:11;17.70;99.90
1417;DHT22;703;51.162;13.574;2023-10-08T00:47:39;17.60;99.90
1417;DHT22;703;51.162;13.574;2023-10-08T00:50:09;17.60;99.90
1417;DHT22;703;51.162;13.574;2023-10-08T00:52:38;17.60;99.90
1417;DHT22;703;51.162;13.574;2023-10-08T00:55:10;17.50;99.90
1417;DHT22;703;51.162;13.574;2023-10-08T00:57:40;17.50;99.90
1417;DHT22;703;51.162;13.574;2023-10-08T01:00:08;17.40;99.90
1417;DHT22;703;51.162;13.574;2023-10-08T01:02:43;17.30;99.90
1417;DHT22;703;51.162;13.574;2023-10-08T01:05:12;17.00;99.90
1417;DHT22;703;51.162;13.574;2023-10-08T01:07:38;17.60;99.90
1417;DHT22;703;51.162;13.574;2023-10-08T01:10:07;16.70;99.90
1417;DHT22;703;51.162;13.574;2023-10-08T01:12:35;16.50;99.90
1417;DHT22;703;51.162;13.574;2023-10-08T01:15:09;16.50;99.90
1417;DHT22;703;51.162;13.574;2023-10-08T01:17:49;16.40;99.90
1417;DHT22;703;51.162;13.574;2023-10-08T01:20:23;16.30;99.90
1417;DHT22;703;51.162;13.574;2023-10-08T01:23:15;16.30;99.90
1417;DHT22;703;51.162;13.574;2023-10-08T01:25:45;16.20;99.90
1417;DHT22;703;51.162;13.574;2023-10-08T01:28:16;16.10;99.90
1417;DHT22;703;51.162;13.574;2023-10-08T01:30:48;15.30;99.90
1417;DHT22;703;51.162;13.574;2023-10-08T01:33:18;14.80;99.90
1417;DHT22;703;51.162;13.574;2023-10-08T01:35:46;14.60;99.90
1417;DHT22;703;51.162;13.574;2023-10-08T01:38:14;14.30;99.90
1417;DHT22;703;51.162;13.574;2023-10-08T01:40:40;14.00;99.90
1417;DHT22;703;51.162;13.574;2023-10-08T01:43:05;13.80;99.90
1417;DHT22;703;51.162;13.574;2023-10-08T01:45:31;13.70;99.90
1417;DHT22;703;51.162;13.574;2023-10-08T01:47:57;13.60;99.90
1417;DHT22;703;51.162;13.574;2023-10-08T01:50:23;13.60;99.90
1417;DHT22;703;51.162;13.574;2023-10-08T01:52:53;13.50;99.90
1417;DHT22;703;51.162;13.574;2023-10-08T01:55:18;13.40;99.90
1417;DHT22;703;51.162;13.574;2023-10-08T01:57:49;13.10;99.90
1417;DHT22;703;51.162;13.574;2023-10-08T02:00:16;13.10;99.90
1417;DHT22;703;51.162;13.574;2023-10-08T02:02:51;13.00;99.90
1417;DHT22;703;51.162;13.574;2023-10-08T02:05:17;13.00;99.90
1417;DHT22;703;51.162;13.574;2023-10-08T02:07:44;12.90;99.90
1417;DHT22;703;51.162;13.574;2023-10-08T02:10:10;12.60;99.90
1417;DHT22;703;51.162;13.574;2023-10-08T02:12:37;12.90;99.90
1417;DHT22;703;51.162;13.574;2023-10-08T02:15:02;12.90;99.90
1417;DHT22;703;51.162;13.574;2023-10-08T02:17:28;12.70;99.90
1417;DHT22;703;51.162;13.574;2023-10-08T02:19:53;12.50;99.90
1417;DHT22;703;51.162;13.574;2023-10-08T02:22:19;12.80;99.90
1417;DHT22;703;51.162;13.574;2023-10-08T02:24:44;12.70;99.90
1417;DHT22;703;51.162;13.574;2023-10-08T02:27:10;12.70;99.90
1417;DHT22;703;51.162;13.574;2023-10-08T02:29:35;12.70;99.90
1417;DHT22;703;51.162;13.574;2023-10-08T02:32:01;12.60;99.90
1417;DHT22;703;51.162;13.574;2023-10-08T02:34:27;16.80;99.90
1417;DHT22;703;51.162;13.574;2023-10-08T02:36:52;12.70;99.90
1417;DHT22;703;51.162;13.574;2023-10-08T02:39:17;12.80;99.90
1417;DHT22;703;51.162;13.574;2023-10-08T02:41:47;12.80;99.90
1417;DHT22;703;51.162;13.574;2023-10-08T02:44:13;12.70;99.90
1417;DHT22;703;51.162;13.574;2023-10-08T02:46:39;12.60;99.90
1417;DHT22;703;51.162;13.574;2023-10-08T02:49:07;12.60;99.90
1417;DHT22;703;51.162;13.574;2023-10-08T02:51:36;12.50;99.90
1417;DHT22;703;51.162;13.574;2023-10-08T02:54:01;12.40;99.90
1417;DHT22;703;51.162;13.574;2023-10-08T02:56:31;12.30;99.90
1417;DHT22;703;51.162;13.574;2023-10-08T02:58:57;12.20;99.90
1417;DHT22;703;51.162;13.574;2023-10-08T03:01:23;12.30;99.90
1417;DHT22;703;51.162;13.574;2023-10-08T03:03:48;12.20;99.90
1417;DHT22;703;51.162;13.574;2023-10-08T03:06:14;12.10;99.90
1417;DHT22;703;51.162;13.574;2023-10-08T03:08:40;12.10;99.90
1417;DHT22;703;51.162;13.574;2023-10-08T03:11:10;11.90;99.90
1417;DHT22;703;51.162;13.574;2023-10-08T03:13:45;11.90;99.90
1417;DHT22;703;51.162;13.574;2023-10-08T03:16:15;11.60;99.90
1417;DHT22;703;51.162;13.574;2023-10-08T03:18:40;11.60;99.90
1417;DHT22;703;51.162;13.574;2023-10-08T03:21:15;11.20;99.90
1417;DHT22;703;51.162;13.574;2023-10-08T03:23:48;11.20;99.90
1417;DHT22;703;51.162;13.574;2023-10-08T03:26:15;10.90;99.90
1417;DHT22;703;51.162;13.574;2023-10-08T03:28:57;10.50;99.90
1417;DHT22;703;51.162;13.574;2023-10-08T03:31:23;10.50;99.90
1417;DHT22;703;51.162;13.574;2023-10-08T03:34:08;10.70;99.90
1417;DHT22;703;51.162;13.574;2023-10-08T03:36:38;10.40;99.90
1417;DHT22;703;51.162;13.574;2023-10-08T03:39:13;10.30;99.90
1417;DHT22;703;51.162;13.574;2023-10-08T03:41:42;10.30;99.90
1417;DHT22;703;51.162;13.574;2023-10-08T03:44:08;10.30;99.90
1417;DHT22;703;51.162;13.574;2023-10-08T03:46:39;10.00;99.90
1417;DHT22;703;51.162;13.574;2023-10-08T03:49:08;10.00;99.90
1417;DHT22;703;51.162;13.574;2023-10-08T03:51:46;10.00;99.90
1417;DHT22;703;51.162;13.574;2023-10-08T03:54:11;10.00;99.90
1417;DHT22;703;51.162;13.574;2023-10-08T03:56:40;10.10;99.90
1417;DHT22;703;51.162;13.574;2023-10-08T03:59:11;9.80;99.90
1417;DHT22;703;51.162;13.574;2023-10-08T04:01:42;10.10;99.90
1417;DHT22;703;51.162;13.574;2023-10-08T04:04:09;10.10;99.90
1417;DHT22;703;51.162;13.574;2023-10-08T04:06:41;9.90;99.90
1417;DHT22;703;51.162;13.574;2023-10-08T04:09:13;10.00;99.90
1417;DHT22;703;51.162;13.574;2023-10-08T04:11:43;10.00;99.90
1417;DHT22;703;51.162;13.574;2023-10-08T04:14:29;9.80;99.90
1417;DHT22;703;51.162;13.574;2023-10-08T04:16:56;10.00;99.90
1417;DHT22;703;51.162;13.574;2023-10-08T04:19:22;10.00;99.90
1417;DHT22;703;51.162;13.574;2023-10-08T04:21:55;10.00;99.90
1417;DHT22;703;51.162;13.574;2023-10-08T04:24:24;9.90;99.90
1417;DHT22;703;51.162;13.574;2023-10-08T04:26:54;10.00;99.90
1417;DHT22;703;51.162;13.574;2023-10-08T04:29:21;10.00;99.90
1417;DHT22;703;51.162;13.574;2023-10-08T04:31:48;10.00;99.90
1417;DHT22;703;51.162;13.574;2023-10-08T04:34:19;11.40;99.90
1417;DHT22;703;51.162;13.574;2023-10-08T04:36:48;10.00;99.90
1417;DHT22;703;51.162;13.574;2023-10-08T04:39:20;10.00;99.90
1417;DHT22;703;51.162;13.574;2023-10-08T04:41:48;10.10;99.90
1417;DHT22;703;51.162;13.574;2023-10-08T04:44:19;10.00;99.90
1417;DHT22;703;51.162;13.574;2023-10-08T04:46:46;10.00;99.90
1417;DHT22;703;51.162;13.574;2023-10-08T04:49:16;9.90;99.90
1417;DHT22;703;51.162;13.574;2023-10-08T04:52:04;10.10;99.90
1417;DHT22;703;51.162;13.574;2023-10-08T04:54:40;10.10;99.90
1417;DHT22;703;51.162;13.574;2023-10-08T04:57:07;9.80;99.90
1417;DHT22;703;51.162;13.574;2023-10-08T04:59:43;11.80;99.90
1417;DHT22;703;51.162;13.574;2023-10-08T05:02:09;9.70;99.90
1417;DHT22;703;51.162;13.574;2023-10-08T05:04:48;9.70;99.90
1417;DHT22;703;51.162;13.574;2023-10-08T05:07:17;9.80;99.90
1417;DHT22;703;51.162;13.574;2023-10-08T05:09:46;9.70;99.90
1417;DHT22;703;51.162;13.574;2023-10-08T05:12:32;9.70;99.90
1417;DHT22;703;51.162;13.574;2023-10-08T05:14:58;9.80;99.90
1417;DHT22;703;51.162;13.574;2023-10-08T05:17:42;9.80;99.90
1417;DHT22;703;51.162;13.574;2023-10-08T05:20:17;9.90;99.90
1417;DHT22;703;51.162;13.574;2023-10-08T05:23:06;9.90;99.90
1417;DHT22;703;51.162;13.574;2023-10-08T05:25:46;9.80;99.90
1417;DHT22;703;51.162;13.574;2023-10-08T05:28:24;9.90;99.90
1417;DHT22;703;51.162;13.574;2023-10-08T05:30:50;10.00;99.90
1417;DHT22;703;51.162;13.574;2023-10-08T05:33:20;10.10;99.90
1417;DHT22;703;51.162;13.574;2023-10-08T05:36:05;10.10;99.90
1417;DHT22;703;51.162;13.574;2023-10-08T05:38:43;10.20;99.90
1417;DHT22;703;51.162;13.574;2023-10-08T05:41:24;10.30;99.90
1417;DHT22;703;51.162;13.574;2023-10-08T05:43:53;10.20;99.90
1417;DHT22;703;51.162;13.574;2023-10-08T05:46:40;10.20;99.90
1417;DHT22;703;51.162;13.574;2023-10-08T05:49:12;10.20;99.90
1417;DHT22;703;51.162;13.574;2023-10-08T05:51:38;10.30;99.90
1417;DHT22;703;51.162;13.574;2023-10-08T05:54:30;10.30;99.90
1417;DHT22;703;51.162;13.574;2023-10-08T05:57:06;10.20;99.90
1417;DHT22;703;51.162;13.574;2023-10-08T05:59:45;10.20;99.90
1417;DHT22;703;51.162;13.574;2023-10-08T06:02:26;10.10;99.90
1417;DHT22;703;51.162;13.574;2023-10-08T06:04:58;13.10;99.90
1417;DHT22;703;51.162;13.574;2023-10-08T06:07:39;10.00;99.90
1417;DHT22;703;51.162;13.574;2023-10-08T06:10:21;9.90;99.90
1417;DHT22;703;51.162;13.574;2023-10-08T06:12:56;10.00;99.90
1417;DHT22;703;51.162;13.574;2023-10-08T06:15:36;10.00;99.90
1417;DHT22;703;51.162;13.574;2023-10-08T06:18:28;10.00;99.90
1417;DHT22;703;51.162;13.574;2023-10-08T06:20:54;10.20;99.90
1417;DHT22;703;51.162;13.574;2023-10-08T06:23:20;10.10;99.90
1417;DHT22;703;51.162;13.574;2023-10-08T06:25:55;10.10;99.90
1417;DHT22;703;51.162;13.574;2023-10-08T06:28:36;10.20;99.90
1417;DHT22;703;51.162;13.574;2023-10-08T06:31:03;10.10;99.90
1417;DHT22;703;51.162;13.574;2023-10-08T06:33:40;10.20;99.90
1417;DHT22;703;51.162;13.574;2023-10-08T06:36:06;10.20;99.90
1417;DHT22;703;51.162;13.574;2023-10-08T06:38:47;10.10;99.90
1417;DHT22;703;51.162;13.574;2023-10-08T06:41:16;10.20;99.90
1417;DHT22;703;51.162;13.574;2023-10-08T06:43:45;10.30;99.90
1417;DHT22;703;51.162;13.574;2023-10-08T06:46:13;10.20;99.90
1417;DHT22;703;51.162;13.574;2023-10-08T06:48:39;10.20;99.90
1417;DHT22;703;51.162;13.574;2023-10-08T06:51:08;10.30;99.90
1417;DHT22;703;51.162;13.574;2023-10-08T06:53:41;10.30;99.90
1417;DHT22;703;51.162;13.574;2023-10-08T06:56:07;10.30;99.90
1417;DHT22;703;51.162;13.574;2023-10-08T06:58:35;10.30;99.90
1417;DHT22;703;51.162;13.574;2023-10-08T07:01:01;10.30;99.90
1417;DHT22;703;51.162;13.574;2023-10-08T07:03:30;10.30;99.90
1417;DHT22;703;51.162;13.574;2023-10-08T07:05:56;10.20;99.90
1417;DHT22;703;51.162;13.574;2023-10-08T07:08:28;10.20;99.90
1417;DHT22;703;51.162;13.574;2023-10-08T07:10:57;9.70;99.90
1417;DHT22;703;51.162;13.574;2023-10-08T07:13:24;10.00;99.90
1417;DHT22;703;51.162;13.574;2023-10-08T07:15:50;10.00;99.90
1417;DHT22;703;51.162;13.574;2023-10-08T07:18:15;10.10;99.90
1417;DHT22;703;51.162;13.574;2023-10-08T07:20:47;10.10;99.90
1417;DHT22;703;51.162;13.574;2023-10-08T07:23:22;10.20;99.90
1417;DHT22;703;51.162;13.574;2023-10-08T07:25:52;10.20;99.90
1417;DHT22;703;51.162;13.574;2023-10-08T07:28:19;10.00;99.90
1417;DHT22;703;51.162;13.574;2023-10-08T07:30:45;10.00;99.90
1417;DHT22;703;51.162;13.574;2023-10-08T07:33:11;9.90;99.90
1417;DHT22;703;51.162;13.574;2023-10-08T07:35:50;10.00;99.90
1417;DHT22;703;51.162;13.574;2023-10-08T07:38:25;10.00;99.90
1417;DHT22;703;51.162;13.574;2023-10-08T07:40:53;10.00;99.90
1417;DHT22;703;51.162;13.574;2023-10-08T07:43:20;10.00;99.90
1417;DHT22;703;51.162;13.574;2023-10-08T07:45:46;9.90;99.90
1417;DHT22;703;51.162;13.574;2023-10-08T07:48:11;9.90;99.90
1417;DHT22;703;51.162;13.574;2023-10-08T07:50:43;9.90;99.90
1417;DHT22;703;51.162;13.574;2023-10-08T07:53:09;10.00;99.90
1417;DHT22;703;51.162;13.574;2023-10-08T07:55:43;10.10;99.90
1417;DHT22;703;51.162;13.574;2023-10-08T07:58:09;10.20;99.90
1417;DHT22;703;51.162;13.574;2023-10-08T08:00:36;10.00;99.90
1417;DHT22;703;51.162;13.574;2023-10-08T08:03:04;10.20;99.90
1417;DHT22;703;51.162;13.574;2023-10-08T08:05:30;10.30;99.90
1417;DHT22;703;51.162;13.574;2023-10-08T08:07:57;10.10;99.90
1417;DHT22;703;51.162;13.574;2023-10-08T08:10:28;10.30;99.90
1417;DHT22;703;51.162;13.574;2023-10-08T08:12:54;10.40;99.90
1417;DHT22;703;51.162;13.574;2023-10-08T08:15:21;10.30;99.90
1417;DHT22;703;51.162;13.574;2023-10-08T08:17:48;10.30;99.90
1417;DHT22;703;51.162;13.574;2023-10-08T08:20:13;11.80;99.90
1417;DHT22;703;51.162;13.574;2023-10-08T08:22:47;10.40;99.90
1417;DHT22;703;51.162;13.574;2023-10-08T08:25:17;10.40;99.90
1417;DHT22;703;51.162;13.574;2023-10-08T08:27:51;10.30;99.90
1417;DHT22;703;51.162;13.574;2023-10-08T08:30:18;10.40;99.90
1417;DHT22;703;51.162;13.574;2023-10-08T08:32:45;10.50;99.90
1417;DHT22;703;51.162;13.574;2023-10-08T08:35:14;10.40;99.90
1417;DHT22;703;51.162;13.574;2023-10-08T08:37:42;10.40;99.90
1417;DHT22;703;51.162;13.574;2023-10-08T08:40:09;10.70;99.90
1417;DHT22;703;51.162;13.574;2023-10-08T08:42:35;10.70;99.90
1417;DHT22;703;51.162;13.574;2023-10-08T08:45:02;10.70;99.90
1417;DHT22;703;51.162;13.574;2023-10-08T08:47:29;10.60;99.90
1417;DHT22;703;51.162;13.574;2023-10-08T08:49:56;10.70;99.90
1417;DHT22;703;51.162;13.574;2023-10-08T08:52:22;10.70;99.90
1417;DHT22;703;51.162;13.574;2023-10-08T08:54:47;10.80;99.90
1417;DHT22;703;51.162;13.574;2023-10-08T08:57:13;10.70;99.90
1417;DHT22;703;51.162;13.574;2023-10-08T09:00:13;10.70;99.90
1417;DHT22;703;51.162;13.574;2023-10-08T09:02:37;11.00;99.90
1417;DHT22;703;51.162;13.574;2023-10-08T09:05:02;11.00;99.90
1417;DHT22;703;51.162;13.574;2023-10-08T09:07:57;11.20;99.90
1417;DHT22;703;51.162;13.574;2023-10-08T09:10:24;11.40;99.90
1417;DHT22;703;51.162;13.574;2023-10-08T09:12:52;11.20;99.90
1417;DHT22;703;51.162;13.574;2023-10-08T09:15:17;11.10;99.90
1417;DHT22;703;51.162;13.574;2023-10-08T09:17:44;11.30;99.90
1417;DHT22;703;51.162;13.574;2023-10-08T09:20:09;12.60;99.90
1417;DHT22;703;51.162;13.574;2023-10-08T09:22:37;11.50;99.90
1417;DHT22;703;51.162;13.574;2023-10-08T09:25:03;11.40;99.90
1417;DHT22;703;51.162;13.574;2023-10-08T09:27:32;11.50;99.90
1417;DHT22;703;51.162;13.574;2023-10-08T09:29:58;11.60;99.90
1417;DHT22;703;51.162;13.574;2023-10-08T09:32:24;11.70;99.90
1417;DHT22;703;51.162;13.574;2023-10-08T09:34:51;11.70;99.90
1417;DHT22;703;51.162;13.574;2023-10-08T09:37:17;11.80;99.90
1417;DHT22;703;51.162;13.574;2023-10-08T09:39:43;11.70;99.90
1417;DHT22;703;51.162;13.574;2023-10-08T09:42:11;11.60;99.90
1417;DHT22;703;51.162;13.574;2023-10-08T09:44:37;11.40;99.90
1417;DHT22;703;51.162;13.574;2023-10-08T09:47:03;11.70;99.90
1417;DHT22;703;51.162;13.574;2023-10-08T09:49:33;11.50;99.90
1417;DHT22;703;51.162;13.574;2023-10-08T09:52:02;11.70;99.90
1417;DHT22;703;51.162;13.574;2023-10-08T09:54:28;11.70;99.90
1417;DHT22;703;51.162;13.574;2023-10-08T09:56:58;11.80;99.90
1417;DHT22;703;51.162;13.574;2023-10-08T09:59:25;11.80;99.90
1417;DHT22;703;51.162;13.574;2023-10-08T10:01:51;12.40;99.90
1417;DHT22;703;51.162;13.574;2023-10-08T10:04:24;13.10;99.90
1417;DHT22;703;51.162;13.574;2023-10-08T10:06:50;13.30;99.90
1417;DHT22;703;51.162;13.574;2023-10-08T10:09:25;12.90;99.90
1417;DHT22;703;51.162;13.574;2023-10-08T10:11:51;12.50;99.90
1417;DHT22;703;51.162;13.574;2023-10-08T10:14:23;12.70;99.90
1417;DHT22;703;51.162;13.574;2023-10-08T10:17:07;13.20;99.90
1417;DHT22;703;51.162;13.574;2023-10-08T10:19:34;13.30;99.90
1417;DHT22;703;51.162;13.574;2023-10-08T10:22:01;13.80;99.90
1417;DHT22;703;51.162;13.574;2023-10-08T10:24:37;14.10;99.90
1417;DHT22;703;51.162;13.574;2023-10-08T10:27:09;14.10;99.90
1417;DHT22;703;51.162;13.574;2023-10-08T10:29:36;13.70;99.90
1417;DHT22;703;51.162;13.574;2023-10-08T10:32:01;14.00;99.90
1417;DHT22;703;51.162;13.574;2023-10-08T10:34:29;14.40;99.90
1417;DHT22;703;51.162;13.574;2023-10-08T10:36:56;15.10;99.90
1417;DHT22;703;51.162;13.574;2023-10-08T10:39:24;15.20;99.90
1417;DHT22;703;51.162;13.574;2023-10-08T10:41:58;14.10;99.90
1417;DHT22;703;51.162;13.574;2023-10-08T10:44:27;13.70;99.90
1417;DHT22;703;51.162;13.574;2023-10-08T10:46:55;13.40;99.90
1417;DHT22;703;51.162;13.574;2023-10-08T10:49:51;13.30;99.90
1417;DHT22;703;51.162;13.574;2023-10-08T10:52:25;13.30;99.90
1417;DHT22;703;51.162;13.574;2023-10-08T10:55:04;13.20;99.90
1417;DHT22;703;51.162;13.574;2023-10-08T10:57:51;13.10;99.90
1417;DHT22;703;51.162;13.574;2023-10-08T11:00:36;13.30;99.90
1417;DHT22;703;51.162;13.574;2023-10-08T11:03:02;13.50;99.90
1417;DHT22;703;51.162;13.574;2023-10-08T11:05:29;13.40;99.90
1417;DHT22;703;51.162;13.574;2023-10-08T11:07:56;13.30;99.90
1417;DHT22;703;51.162;13.574;2023-10-08T11:10:33;13.30;99.90
1417;DHT22;703;51.162;13.574;2023-10-08T11:13:00;14.00;99.90
1417;DHT22;703;51.162;13.574;2023-10-08T11:15:29;13.90;99.90
1417;DHT22;703;51.162;13.574;2023-10-08T11:18:11;13.70;99.90
1417;DHT22;703;51.162;13.574;2023-10-08T11:20:37;13.30;99.90
1417;DHT22;703;51.162;13.574;2023-10-08T11:23:08;13.30;99.90
1417;DHT22;703;51.162;13.574;2023-10-08T11:25:56;13.40;99.90
1417;DHT22;703;51.162;13.574;2023-10-08T11:28:32;13.30;99.90
1417;DHT22;703;51.162;13.574;2023-10-08T11:31:00;13.30;99.90
1417;DHT22;703;51.162;13.574;2023-10-08T11:33:36;13.20;99.90
1417;DHT22;703;51.162;13.574;2023-10-08T11:36:02;13.20;99.90
1417;DHT22;703;51.162;13.574;2023-10-08T11:38:38;13.90;99.90
1417;DHT22;703;51.162;13.574;2023-10-08T11:41:37;15.10;99.90
1417;DHT22;703;51.162;13.574;2023-10-08T11:43:56;16.50;99.90
1417;DHT22;703;51.162;13.574;2023-10-08T11:46:29;14.40;99.90
1417;DHT22;703;51.162;13.574;2023-10-08T11:49:07;14.20;99.90
1417;DHT22;703;51.162;13.574;2023-10-08T11:51:33;14.00;99.90
1417;DHT22;703;51.162;13.574;2023-10-08T11:54:00;14.10;99.90
1417;DHT22;703;51.162;13.574;2023-10-08T11:56:26;14.80;99.90
1417;DHT22;703;51.162;13.574;2023-10-08T11:58:51;14.60;99.90
1417;DHT22;703;51.162;13.574;2023-10-08T12:01:17;14.80;99.90
1417;DHT22;703;51.162;13.574;2023-10-08T12:03:43;15.20;99.90
1417;DHT22;703;51.162;13.574;2023-10-08T12:06:12;14.80;99.90
1417;DHT22;703;51.162;13.574;2023-10-08T12:08:41;14.60;99.90
1417;DHT22;703;51.162;13.574;2023-10-08T12:11:06;14.30;99.90
1417;DHT22;703;51.162;13.574;2023-10-08T12:13:40;14.30;99.90
1417;DHT22;703;51.162;13.574;2023-10-08T12:16:13;14.10;99.90
1417;DHT22;703;51.162;13.574;2023-10-08T12:18:47;14.20;99.90
1417;DHT22;703;51.162;13.574;2023-10-08T12:21:19;14.30;99.90
1417;DHT22;703;51.162;13.574;2023-10-08T12:23:45;14.40;99.90
1417;DHT22;703;51.162;13.574;2023-10-08T12:26:12;14.40;99.90
1417;DHT22;703;51.162;13.574;2023-10-08T12:28:44;14.20;99.90
1417;DHT22;703;51.162;13.574;2023-10-08T12:31:11;14.20;99.90
1417;DHT22;703;51.162;13.574;2023-10-08T12:33:36;14.10;99.90
1417;DHT22;703;51.162;13.574;2023-10-08T12:36:03;14.10;99.90
1417;DHT22;703;51.162;13.574;2023-10-08T12:38:36;14.30;99.90
1417;DHT22;703;51.162;13.574;2023-10-08T12:41:02;14.60;99.90
1417;DHT22;703;51.162;13.574;2023-10-08T12:43:37;14.90;99.90
1417;DHT22;703;51.162;13.574;2023-10-08T12:46:04;15.70;99.90
1417;DHT22;703;51.162;13.574;2023-10-08T12:48:29;16.20;99.90
1417;DHT22;703;51.162;13.574;2023-10-08T12:50:55;15.70;99.90
1417;DHT22;703;51.162;13.574;2023-10-08T12:53:24;14.70;99.90
1417;DHT22;703;51.162;13.574;2023-10-08T12:55:53;14.60;99.90
1417;DHT22;703;51.162;13.574;2023-10-08T12:58:22;14.40;99.90
1417;DHT22;703;51.162;13.574;2023-10-08T13:00:51;14.30;99.90
1417;DHT22;703;51.162;13.574;2023-10-08T13:03:23;14.20;99.90
1417;DHT22;703;51.162;13.574;2023-10-08T13:05:49;14.10;99.90
1417;DHT22;703;51.162;13.574;2023-10-08T13:08:18;14.10;99.90
1417;DHT22;703;51.162;13.574;2023-10-08T13:10:48;14.10;99.90
1417;DHT22;703;51.162;13.574;2023-10-08T13:13:13;14.30;99.90
1417;DHT22;703;51.162;13.574;2023-10-08T13:15:39;14.30;99.90
1417;DHT22;703;51.162;13.574;2023-10-08T13:18:07;14.50;99.90
1417;DHT22;703;51.162;13.574;2023-10-08T13:20:32;14.60;99.90
1417;DHT22;703;51.162;13.574;2023-10-08T13:23:02;14.70;99.90
1417;DHT22;703;51.162;13.574;2023-10-08T13:25:29;14.80;99.90
1417;DHT22;703;51.162;13.574;2023-10-08T13:27:58;14.50;99.90
1417;DHT22;703;51.162;13.574;2023-10-08T13:30:26;14.40;99.90
1417;DHT22;703;51.162;13.574;2023-10-08T13:32:51;14.70;99.90
1417;DHT22;703;51.162;13.574;2023-10-08T13:35:17;14.70;99.90
1417;DHT22;703;51.162;13.574;2023-10-08T13:37:42;14.70;99.90
1417;DHT22;703;51.162;13.574;2023-10-08T13:40:08;15.00;99.90
1417;DHT22;703;51.162;13.574;2023-10-08T13:42:33;15.90;99.90
1417;DHT22;703;51.162;13.574;2023-10-08T13:44:59;17.30;99.90
1417;DHT22;703;51.162;13.574;2023-10-08T13:47:25;15.90;99.90
1417;DHT22;703;51.162;13.574;2023-10-08T13:49:51;15.90;99.90
1417;DHT22;703;51.162;13.574;2023-10-08T13:52:18;15.20;99.90
1417;DHT22;703;51.162;13.574;2023-10-08T13:54:45;15.10;99.90
1417;DHT22;703;51.162;13.574;2023-10-08T13:57:19;14.90;99.90
1417;DHT22;703;51.162;13.574;2023-10-08T13:59:48;14.70;99.90
1417;DHT22;703;51.162;13.574;2023-10-08T14:02:16;14.60;99.90
1417;DHT22;703;51.162;13.574;2023-10-08T14:04:46;14.50;99.90
1417;DHT22;703;51.162;13.574;2023-10-08T14:07:15;14.50;99.90
1417;DHT22;703;51.162;13.574;2023-10-08T14:09:44;14.50;99.90
1417;DHT22;703;51.162;13.574;2023-10-08T14:12:11;14.40;99.90
1417;DHT22;703;51.162;13.574;2023-10-08T14:14:36;14.70;99.90
1417;DHT22;703;51.162;13.574;2023-10-08T14:17:06;15.50;99.90
1417;DHT22;703;51.162;13.574;2023-10-08T14:19:32;16.10;99.90
1417;DHT22;703;51.162;13.574;2023-10-08T14:22:17;16.70;99.90
1417;DHT22;703;51.162;13.574;2023-10-08T14:24:44;16.50;99.90
1417;DHT22;703;51.162;13.574;2023-10-08T14:27:11;16.60;99.90
1417;DHT22;703;51.162;13.574;2023-10-08T14:29:39;16.30;99.90
1417;DHT22;703;51.162;13.574;2023-10-08T14:32:08;15.50;99.90
1417;DHT22;703;51.162;13.574;2023-10-08T14:34:37;15.10;99.90
1417;DHT22;703;51.162;13.574;2023-10-08T14:37:08;14.90;99.90
1417;DHT22;703;51.162;13.574;2023-10-08T14:39:53;14.80;99.90
1417;DHT22;703;51.162;13.574;2023-10-08T14:42:37;17.60;99.90
1417;DHT22;703;51.162;13.574;2023-10-08T14:45:21;14.70;99.90
1417;DHT22;703;51.162;13.574;2023-10-08T14:47:47;14.90;99.90
1417;DHT22;703;51.162;13.574;2023-10-08T14:50:13;15.40;99.90
1417;DHT22;703;51.162;13.574;2023-10-08T14:52:44;15.90;99.90
1417;DHT22;703;51.162;13.574;2023-10-08T14:55:09;15.60;99.90
1417;DHT22;703;51.162;13.574;2023-10-08T14:57:36;15.80;99.90
1417;DHT22;703;51.162;13.574;2023-10-08T15:00:01;16.00;99.90
1417;DHT22;703;51.162;13.574;2023-10-08T15:02:30;15.70;99.90
1417;DHT22;703;51.162;13.574;2023-10-08T15:04:56;15.70;99.90
1417;DHT22;703;51.162;13.574;2023-10-08T15:07:23;15.60;99.90
1417;DHT22;703;51.162;13.574;2023-10-08T15:09:48;15.40;99.90
1417;DHT22;703;51.162;13.574;2023-10-08T15:12:15;15.20;99.90
1417;DHT22;703;51.162;13.574;2023-10-08T15:14:43;14.60;99.90
1417;DHT22;703;51.162;13.574;2023-10-08T15:17:08;14.10;99.90
1417;DHT22;703;51.162;13.574;2023-10-08T15:19:34;14.10;99.90
1417;DHT22;703;51.162;13.574;2023-10-08T15:22:00;14.00;99.90
1417;DHT22;703;51.162;13.574;2023-10-08T15:24:26;14.00;99.90
1417;DHT22;703;51.162;13.574;2023-10-08T15:26:52;14.10;99.90
1417;DHT22;703;51.162;13.574;2023-10-08T15:29:20;14.00;99.90
1417;DHT22;703;51.162;13.574;2023-10-08T15:31:46;13.80;99.90
1417;DHT22;703;51.162;13.574;2023-10-08T15:34:12;13.70;99.90
1417;DHT22;703;51.162;13.574;2023-10-08T15:36:38;13.80;99.90
1417;DHT22;703;51.162;13.574;2023-10-08T15:39:04;13.80;99.90
1417;DHT22;703;51.162;13.574;2023-10-08T15:41:30;13.80;99.90
1417;DHT22;703;51.162;13.574;2023-10-08T15:43:55;13.60;99.90
1417;DHT22;703;51.162;13.574;2023-10-08T15:46:26;13.40;99.90
1417;DHT22;703;51.162;13.574;2023-10-08T15:48:52;13.30;99.90
1417;DHT22;703;51.162;13.574;2023-10-08T15:51:19;13.10;99.90
1417;DHT22;703;51.162;13.574;2023-10-08T15:53:44;13.00;99.90
1417;DHT22;703;51.162;13.574;2023-10-08T15:56:10;12.90;99.90
1417;DHT22;703;51.162;13.574;2023-10-08T15:58:36;12.70;99.90
1417;DHT22;703;51.162;13.574;2023-10-08T16:01:01;12.70;99.90
1417;DHT22;703;51.162;13.574;2023-10-08T16:03:26;12.70;99.90
1417;DHT22;703;51.162;13.574;2023-10-08T16:05:52;12.50;99.90
1417;DHT22;703;51.162;13.574;2023-10-08T16:08:20;12.40;99.90
1417;DHT22;703;51.162;13.574;2023-10-08T16:10:45;12.30;99.90
1417;DHT22;703;51.162;13.574;2023-10-08T16:13:11;12.40;99.90
1417;DHT22;703;51.162;13.574;2023-10-08T16:15:36;12.40;99.90
1417;DHT22;703;51.162;13.574;2023-10-08T16:18:02;12.50;99.90